sensor_id;sensor_type;location;lat;lon;timestamp;temperature;humidity
9083;DHT22;4577;48.704;9.000;2023-02-25T00:02:35;5.00;95.00
9083;DHT22;4577;48.704;9.000;2023-02-25T00:05:02;5.00;95.30
9083;DHT22;4577;48.704;9.000;2023-02-25T00:07:31;5.00;95.30
9083;DHT22;4577;48.704;9.000;2023-02-25T00:09:57;4.80;95.10
9083;DHT22;4577;48.704;9.000;2023-02-25T00:14:49;4.80;95.50
9083;DHT22;4577;48.704;9.000;2023-02-25T00:17:15;4.80;95.80
9083;DHT22;4577;48.704;9.000;2023-02-25T00:19:40;4.90;95.90
9083;DHT22;4577;48.704;9.000;2023-02-25T00:22:06;4.80;96.10
9083;DHT22;4577;48.704;9.000;2023-02-25T00:24:32;4.80;97.10
9083;DHT22;4577;48.704;9.000;2023-02-25T00:26:57;4.70;96.80
9083;DHT22;4577;48.704;9.000;2023-02-25T00:29:23;4.70;96.70
9083;DHT22;4577;48.704;9.000;2023-02-25T00:31:48;4.60;96.80
9083;DHT22;4577;48.704;9.000;2023-02-25T00:34:14;4.80;97.00
9083;DHT22;4577;48.704;9.000;2023-02-25T00:36:40;4.90;97.10
9083;DHT22;4577;48.704;9.000;2023-02-25T00:39:05;4.90;96.20
9083;DHT22;4577;48.704;9.000;2023-02-25T00:41:31;4.80;96.40
9083;DHT22;4577;48.704;9.000;2023-02-25T00:43:59;4.80;96.40
9083;DHT22;4577;48.704;9.000;2023-02-25T00:46:26;4.90;97.10
9083;DHT22;4577;48.704;9.000;2023-02-25T00:48:52;5.00;96.30
9083;DHT22;4577;48.704;9.000;2023-02-25T00:53:46;4.10;96.20
9083;DHT22;4577;48.704;9.000;2023-02-25T00:58:41;4.90;97.00
9083;DHT22;4577;48.704;9.000;2023-02-25T01:01:23;4.90;97.10
9083;DHT22;4577;48.704;9.000;2023-02-25T01:03:50;5.00;96.90
9083;DHT22;4577;48.704;9.000;2023-02-25T01:06:16;4.90;97.20
9083;DHT22;4577;48.704;9.000;2023-02-25T01:08:43;5.00;97.00
9083;DHT22;4577;48.704;9.000;2023-02-25T01:11:14;5.00;96.80
9083;DHT22;4577;48.704;9.000;2023-02-25T01:13:40;5.10;96.40
9083;DHT22;4577;48.704;9.000;2023-02-25T01:18:53;5.10;96.70
9083;DHT22;4577;48.704;9.000;2023-02-25T01:21:27;5.20;96.30
9083;DHT22;4577;48.704;9.000;2023-02-25T01:24:01;5.20;95.80
9083;DHT22;4577;48.704;9.000;2023-02-25T01:26:31;5.20;96.20
9083;DHT22;4577;48.704;9.000;2023-02-25T01:28:57;3.00;94.50
9083;DHT22;4577;48.704;9.000;2023-02-25T01:31:24;5.00;95.60
9083;DHT22;4577;48.704;9.000;2023-02-25T01:33:56;5.00;95.20
9083;DHT22;4577;48.704;9.000;2023-02-25T01:36:21;5.00;94.60
9083;DHT22;4577;48.704;9.000;2023-02-25T01:41:13;5.10;94.10
9083;DHT22;4577;48.704;9.000;2023-02-25T01:43:40;5.00;94.30
9083;DHT22;4577;48.704;9.000;2023-02-25T01:46:05;5.00;94.50
9083;DHT22;4577;48.704;9.000;2023-02-25T01:51:05;5.00;94.50
9083;DHT22;4577;48.704;9.000;2023-02-25T01:53:35;5.10;94.50
9083;DHT22;4577;48.704;9.000;2023-02-25T01:56:01;5.10;94.40
9083;DHT22;4577;48.704;9.000;2023-02-25T01:58:28;5.10;94.20
9083;DHT22;4577;48.704;9.000;2023-02-25T02:00:54;5.20;94.00
9083;DHT22;4577;48.704;9.000;2023-02-25T02:03:30;4.90;93.40
9083;DHT22;4577;48.704;9.000;2023-02-25T02:06:08;4.80;93.80
9083;DHT22;4577;48.704;9.000;2023-02-25T02:08:36;5.00;94.00
9083;DHT22;4577;48.704;9.000;2023-02-25T02:11:02;5.00;93.00
9083;DHT22;4577;48.704;9.000;2023-02-25T02:13:29;4.80;92.70
9083;DHT22;4577;48.704;9.000;2023-02-25T02:16:11;4.80;92.80
9083;DHT22;4577;48.704;9.000;2023-02-25T02:18:44;4.60;92.90
9083;DHT22;4577;48.704;9.000;2023-02-25T02:24:57;4.70;92.90
9083;DHT22;4577;48.704;9.000;2023-02-25T02:28:16;4.50;91.60
9083;DHT22;4577;48.704;9.000;2023-02-25T02:30:53;4.50;92.00
9083;DHT22;4577;48.704;9.000;2023-02-25T02:44:04;4.40;91.60
9083;DHT22;4577;48.704;9.000;2023-02-25T02:47:20;4.40;91.90
9083;DHT22;4577;48.704;9.000;2023-02-25T02:49:36;4.40;92.00
9083;DHT22;4577;48.704;9.000;2023-02-25T02:52:09;4.40;92.40
9083;DHT22;4577;48.704;9.000;2023-02-25T02:54:40;4.30;92.10
9083;DHT22;4577;48.704;9.000;2023-02-25T02:57:08;4.40;92.30
9083;DHT22;4577;48.704;9.000;2023-02-25T02:59:39;4.20;92.20
9083;DHT22;4577;48.704;9.000;2023-02-25T03:02:36;4.30;92.40
9083;DHT22;4577;48.704;9.000;2023-02-25T03:05:07;4.30;92.00
9083;DHT22;4577;48.704;9.000;2023-02-25T03:07:42;4.30;91.80
9083;DHT22;4577;48.704;9.000;2023-02-25T03:10:12;4.30;91.70
9083;DHT22;4577;48.704;9.000;2023-02-25T03:12:38;4.30;91.40
9083;DHT22;4577;48.704;9.000;2023-02-25T03:15:05;4.20;91.30
9083;DHT22;4577;48.704;9.000;2023-02-25T03:17:38;4.20;91.30
9083;DHT22;4577;48.704;9.000;2023-02-25T03:22:45;4.20;91.30
9083;DHT22;4577;48.704;9.000;2023-02-25T03:25:54;4.10;91.50
9083;DHT22;4577;48.704;9.000;2023-02-25T03:33:53;4.20;91.80
9083;DHT22;4577;48.704;9.000;2023-02-25T03:36:02;4.30;91.50
9083;DHT22;4577;48.704;9.000;2023-02-25T03:41:00;4.30;91.00
9083;DHT22;4577;48.704;9.000;2023-02-25T03:43:29;4.90;91.30
9083;DHT22;4577;48.704;9.000;2023-02-25T03:45:57;4.40;90.60
9083;DHT22;4577;48.704;9.000;2023-02-25T03:48:23;4.30;90.40
9083;DHT22;4577;48.704;9.000;2023-02-25T03:51:01;4.30;90.50
9083;DHT22;4577;48.704;9.000;2023-02-25T03:53:29;4.00;90.70
9083;DHT22;4577;48.704;9.000;2023-02-25T03:55:57;4.30;90.80
9083;DHT22;4577;48.704;9.000;2023-02-25T03:58:23;4.40;90.90
9083;DHT22;4577;48.704;9.000;2023-02-25T04:00:53;4.30;90.90
9083;DHT22;4577;48.704;9.000;2023-02-25T04:03:20;4.30;90.90
9083;DHT22;4577;48.704;9.000;2023-02-25T04:08:13;4.30;90.90
9083;DHT22;4577;48.704;9.000;2023-02-25T04:10:44;4.30;91.20
9083;DHT22;4577;48.704;9.000;2023-02-25T04:13:11;4.40;90.50
9083;DHT22;4577;48.704;9.000;2023-02-25T04:15:37;4.40;90.90
9083;DHT22;4577;48.704;9.000;2023-02-25T04:20:29;4.30;90.60
9083;DHT22;4577;48.704;9.000;2023-02-25T04:22:55;4.30;89.20
9083;DHT22;4577;48.704;9.000;2023-02-25T04:30:15;4.10;83.40
9083;DHT22;4577;48.704;9.000;2023-02-25T04:32:41;4.00;81.40
9083;DHT22;4577;48.704;9.000;2023-02-25T04:35:07;4.00;79.20
9083;DHT22;4577;48.704;9.000;2023-02-25T04:37:37;3.90;79.10
9083;DHT22;4577;48.704;9.000;2023-02-25T04:40:04;3.90;79.70
9083;DHT22;4577;48.704;9.000;2023-02-25T05:14:17;3.80;76.90
9083;DHT22;4577;48.704;9.000;2023-02-25T05:19:15;3.80;77.00
9083;DHT22;4577;48.704;9.000;2023-02-25T05:24:07;3.70;77.80
9083;DHT22;4577;48.704;9.000;2023-02-25T05:28:58;3.90;78.60
9083;DHT22;4577;48.704;9.000;2023-02-25T05:31:24;3.70;78.60
9083;DHT22;4577;48.704;9.000;2023-02-25T05:33:50;3.80;78.70
9083;DHT22;4577;48.704;9.000;2023-02-25T05:36:16;3.80;79.40
9083;DHT22;4577;48.704;9.000;2023-02-25T05:38:43;3.90;79.00
9083;DHT22;4577;48.704;9.000;2023-02-25T05:41:10;3.90;79.20
9083;DHT22;4577;48.704;9.000;2023-02-25T05:43:37;3.90;79.10
9083;DHT22;4577;48.704;9.000;2023-02-25T05:51:00;3.80;78.50
9083;DHT22;4577;48.704;9.000;2023-02-25T05:53:26;3.90;78.40
9083;DHT22;4577;48.704;9.000;2023-02-25T05:58:21;3.80;78.60
9083;DHT22;4577;48.704;9.000;2023-02-25T06:10:32;3.80;76.20
9083;DHT22;4577;48.704;9.000;2023-02-25T06:13:04;3.80;76.50
9083;DHT22;4577;48.704;9.000;2023-02-25T06:15:29;3.70;76.50
9083;DHT22;4577;48.704;9.000;2023-02-25T06:25:16;3.90;76.70
9083;DHT22;4577;48.704;9.000;2023-02-25T06:27:42;3.90;76.70
9083;DHT22;4577;48.704;9.000;2023-02-25T06:30:09;3.80;75.30
9083;DHT22;4577;48.704;9.000;2023-02-25T06:35:01;3.80;76.50
9083;DHT22;4577;48.704;9.000;2023-02-25T06:39:52;3.80;76.50
9083;DHT22;4577;48.704;9.000;2023-02-25T06:44:44;3.70;75.30
9083;DHT22;4577;48.704;9.000;2023-02-25T06:49:36;3.70;75.70
9083;DHT22;4577;48.704;9.000;2023-02-25T06:52:02;3.70;75.40
9083;DHT22;4577;48.704;9.000;2023-02-25T06:54:28;3.80;76.20
9083;DHT22;4577;48.704;9.000;2023-02-25T06:56:53;3.70;74.90
9083;DHT22;4577;48.704;9.000;2023-02-25T06:59:20;3.70;75.90
9083;DHT22;4577;48.704;9.000;2023-02-25T07:04:17;3.70;74.10
9083;DHT22;4577;48.704;9.000;2023-02-25T07:06:43;3.70;74.10
9083;DHT22;4577;48.704;9.000;2023-02-25T07:09:08;3.70;74.00
9083;DHT22;4577;48.704;9.000;2023-02-25T07:11:34;3.70;74.10
9083;DHT22;4577;48.704;9.000;2023-02-25T07:14:05;3.70;74.60
9083;DHT22;4577;48.704;9.000;2023-02-25T07:16:31;3.90;75.10
9083;DHT22;4577;48.704;9.000;2023-02-25T07:18:58;3.50;74.60
9083;DHT22;4577;48.704;9.000;2023-02-25T07:23:55;3.40;73.00
9083;DHT22;4577;48.704;9.000;2023-02-25T07:36:13;3.50;70.90
9083;DHT22;4577;48.704;9.000;2023-02-25T07:41:10;3.50;69.90
9083;DHT22;4577;48.704;9.000;2023-02-25T07:43:36;3.60;70.20
9083;DHT22;4577;48.704;9.000;2023-02-25T07:48:29;3.60;70.00
9083;DHT22;4577;48.704;9.000;2023-02-25T07:50:55;3.50;69.60
9083;DHT22;4577;48.704;9.000;2023-02-25T07:53:21;3.60;67.80
9083;DHT22;4577;48.704;9.000;2023-02-25T08:03:06;3.80;67.20
9083;DHT22;4577;48.704;9.000;2023-02-25T08:08:01;3.80;64.30
9083;DHT22;4577;48.704;9.000;2023-02-25T08:12:53;3.60;63.70
9083;DHT22;4577;48.704;9.000;2023-02-25T08:27:31;3.90;65.10
9083;DHT22;4577;48.704;9.000;2023-02-25T08:29:59;3.80;66.10
9083;DHT22;4577;48.704;9.000;2023-02-25T08:32:25;4.10;66.80
9083;DHT22;4577;48.704;9.000;2023-02-25T08:39:44;3.90;67.10
9083;DHT22;4577;48.704;9.000;2023-02-25T08:44:37;3.80;67.40
9083;DHT22;4577;48.704;9.000;2023-02-25T08:49:30;3.90;65.50
9083;DHT22;4577;48.704;9.000;2023-02-25T08:56:50;4.20;66.40
9083;DHT22;4577;48.704;9.000;2023-02-25T09:01:42;4.00;66.10
9083;DHT22;4577;48.704;9.000;2023-02-25T09:09:18;3.40;65.10
9083;DHT22;4577;48.704;9.000;2023-02-25T09:26:23;3.90;66.10
9083;DHT22;4577;48.704;9.000;2023-02-25T09:33:42;3.80;65.50
9083;DHT22;4577;48.704;9.000;2023-02-25T09:41:02;4.30;61.50
9083;DHT22;4577;48.704;9.000;2023-02-25T09:53:51;4.20;55.10
9083;DHT22;4577;48.704;9.000;2023-02-25T10:11:45;4.50;54.60
9083;DHT22;4577;48.704;9.000;2023-02-25T10:27:23;4.80;53.20
9083;DHT22;4577;48.704;9.000;2023-02-25T10:29:51;4.90;53.70
9083;DHT22;4577;48.704;9.000;2023-02-25T10:34:46;4.80;54.70
9083;DHT22;4577;48.704;9.000;2023-02-25T10:42:14;4.90;53.50
9083;DHT22;4577;48.704;9.000;2023-02-25T10:44:40;4.40;53.70
9083;DHT22;4577;48.704;9.000;2023-02-25T10:47:12;5.00;52.50
9083;DHT22;4577;48.704;9.000;2023-02-25T10:52:14;5.10;54.90
9083;DHT22;4577;48.704;9.000;2023-02-25T10:54:50;5.00;52.60
9083;DHT22;4577;48.704;9.000;2023-02-25T11:05:34;5.00;55.20
9083;DHT22;4577;48.704;9.000;2023-02-25T11:20:30;4.90;56.40
9083;DHT22;4577;48.704;9.000;2023-02-25T11:25:37;5.10;55.80
9083;DHT22;4577;48.704;9.000;2023-02-25T11:28:06;5.00;53.30
9083;DHT22;4577;48.704;9.000;2023-02-25T11:30:36;5.00;53.40
9083;DHT22;4577;48.704;9.000;2023-02-25T11:33:23;4.90;53.00
9083;DHT22;4577;48.704;9.000;2023-02-25T11:35:58;4.70;54.10
9083;DHT22;4577;48.704;9.000;2023-02-25T11:38:37;4.90;53.80
9083;DHT22;4577;48.704;9.000;2023-02-25T11:41:03;5.00;53.90
9083;DHT22;4577;48.704;9.000;2023-02-25T11:43:39;5.00;53.90
9083;DHT22;4577;48.704;9.000;2023-02-25T11:46:11;5.10;54.50
9083;DHT22;4577;48.704;9.000;2023-02-25T11:49:25;4.90;55.60
9083;DHT22;4577;48.704;9.000;2023-02-25T11:52:04;5.10;56.60
9083;DHT22;4577;48.704;9.000;2023-02-25T11:55:01;5.10;55.80
9083;DHT22;4577;48.704;9.000;2023-02-25T12:03:22;5.10;54.80
9083;DHT22;4577;48.704;9.000;2023-02-25T12:06:24;4.90;55.60
9083;DHT22;4577;48.704;9.000;2023-02-25T12:17:56;4.80;55.40
9083;DHT22;4577;48.704;9.000;2023-02-25T12:29:03;4.70;55.90
9083;DHT22;4577;48.704;9.000;2023-02-25T12:34:43;4.70;57.00
9083;DHT22;4577;48.704;9.000;2023-02-25T12:39:52;4.40;56.90
9083;DHT22;4577;48.704;9.000;2023-02-25T12:48:24;4.60;57.70
9083;DHT22;4577;48.704;9.000;2023-02-25T12:53:57;4.70;58.10
9083;DHT22;4577;48.704;9.000;2023-02-25T13:11:13;5.10;60.60
9083;DHT22;4577;48.704;9.000;2023-02-25T13:27:15;4.00;66.10
9083;DHT22;4577;48.704;9.000;2023-02-25T13:52:24;4.10;61.40
9083;DHT22;4577;48.704;9.000;2023-02-25T14:12:47;4.60;58.00
9083;DHT22;4577;48.704;9.000;2023-02-25T14:26:58;4.70;55.50
9083;DHT22;4577;48.704;9.000;2023-02-25T14:30:09;4.50;56.70
9083;DHT22;4577;48.704;9.000;2023-02-25T14:33:00;4.50;56.10
9083;DHT22;4577;48.704;9.000;2023-02-25T14:45:44;4.90;54.70
9083;DHT22;4577;48.704;9.000;2023-02-25T14:48:25;5.00;55.10
9083;DHT22;4577;48.704;9.000;2023-02-25T14:53:56;5.00;55.90
9083;DHT22;4577;48.704;9.000;2023-02-25T14:56:46;5.00;55.70
9083;DHT22;4577;48.704;9.000;2023-02-25T15:04:57;5.10;56.30
9083;DHT22;4577;48.704;9.000;2023-02-25T15:07:53;5.10;56.00
9083;DHT22;4577;48.704;9.000;2023-02-25T15:20:43;5.00;54.60
9083;DHT22;4577;48.704;9.000;2023-02-25T15:23:11;5.00;55.20
9083;DHT22;4577;48.704;9.000;2023-02-25T15:33:32;4.90;54.40
9083;DHT22;4577;48.704;9.000;2023-02-25T15:36:00;5.00;54.80
9083;DHT22;4577;48.704;9.000;2023-02-25T15:38:53;4.60;54.80
9083;DHT22;4577;48.704;9.000;2023-02-25T15:48:45;4.80;55.50
9083;DHT22;4577;48.704;9.000;2023-02-25T15:51:56;4.90;55.00
9083;DHT22;4577;48.704;9.000;2023-02-25T15:54:45;4.90;55.10
9083;DHT22;4577;48.704;9.000;2023-02-25T16:07:23;5.00;55.00
9083;DHT22;4577;48.704;9.000;2023-02-25T16:09:56;5.20;54.30
9083;DHT22;4577;48.704;9.000;2023-02-25T16:12:23;5.00;54.50
9083;DHT22;4577;48.704;9.000;2023-02-25T16:14:51;5.00;54.60
9083;DHT22;4577;48.704;9.000;2023-02-25T16:17:22;4.90;54.80
9083;DHT22;4577;48.704;9.000;2023-02-25T16:19:53;4.90;54.50
9083;DHT22;4577;48.704;9.000;2023-02-25T16:22:26;4.90;54.90
9083;DHT22;4577;48.704;9.000;2023-02-25T16:24:57;4.90;55.70
9083;DHT22;4577;48.704;9.000;2023-02-25T16:36:07;4.80;57.30
9083;DHT22;4577;48.704;9.000;2023-02-25T16:38:46;4.80;58.70
9083;DHT22;4577;48.704;9.000;2023-02-25T16:41:15;4.80;60.30
9083;DHT22;4577;48.704;9.000;2023-02-25T16:43:42;4.80;61.70
9083;DHT22;4577;48.704;9.000;2023-02-25T16:46:12;4.80;62.50
9083;DHT22;4577;48.704;9.000;2023-02-25T16:48:57;4.80;62.70
9083;DHT22;4577;48.704;9.000;2023-02-25T16:51:35;4.70;63.30
9083;DHT22;4577;48.704;9.000;2023-02-25T16:54:13;4.70;63.50
9083;DHT22;4577;48.704;9.000;2023-02-25T16:56:41;4.60;63.70
9083;DHT22;4577;48.704;9.000;2023-02-25T16:59:18;4.60;64.20
9083;DHT22;4577;48.704;9.000;2023-02-25T17:01:55;4.80;64.60
9083;DHT22;4577;48.704;9.000;2023-02-25T17:04:30;4.70;68.60
9083;DHT22;4577;48.704;9.000;2023-02-25T17:07:32;4.80;66.70
9083;DHT22;4577;48.704;9.000;2023-02-25T17:10:01;4.70;65.50
9083;DHT22;4577;48.704;9.000;2023-02-25T17:12:39;4.70;65.00
9083;DHT22;4577;48.704;9.000;2023-02-25T17:15:33;4.60;64.70
9083;DHT22;4577;48.704;9.000;2023-02-25T17:20:26;4.50;65.10
9083;DHT22;4577;48.704;9.000;2023-02-25T17:23:04;5.00;66.20
9083;DHT22;4577;48.704;9.000;2023-02-25T17:25:43;4.20;66.00
9083;DHT22;4577;48.704;9.000;2023-02-25T17:28:21;4.10;66.70
9083;DHT22;4577;48.704;9.000;2023-02-25T17:30:47;4.00;66.60
9083;DHT22;4577;48.704;9.000;2023-02-25T17:35:44;4.10;67.50
9083;DHT22;4577;48.704;9.000;2023-02-25T17:38:15;4.20;67.50
9083;DHT22;4577;48.704;9.000;2023-02-25T17:40:42;4.20;67.50
9083;DHT22;4577;48.704;9.000;2023-02-25T17:45:55;5.00;67.00
9083;DHT22;4577;48.704;9.000;2023-02-25T17:48:24;4.10;66.30
9083;DHT22;4577;48.704;9.000;2023-02-25T17:51:03;4.10;65.00
9083;DHT22;4577;48.704;9.000;2023-02-25T17:53:46;4.30;65.40
9083;DHT22;4577;48.704;9.000;2023-02-25T17:56:22;4.10;68.80
9083;DHT22;4577;48.704;9.000;2023-02-25T17:58:50;3.60;71.70
9083;DHT22;4577;48.704;9.000;2023-02-25T18:01:28;3.40;75.20
9083;DHT22;4577;48.704;9.000;2023-02-25T18:06:29;3.30;81.20
9083;DHT22;4577;48.704;9.000;2023-02-25T18:11:36;3.30;82.30
9083;DHT22;4577;48.704;9.000;2023-02-25T18:14:36;3.40;82.50
9083;DHT22;4577;48.704;9.000;2023-02-25T18:17:18;3.10;81.50
9083;DHT22;4577;48.704;9.000;2023-02-25T18:19:47;3.20;82.80
9083;DHT22;4577;48.704;9.000;2023-02-25T18:22:45;3.40;80.00
9083;DHT22;4577;48.704;9.000;2023-02-25T18:27:53;3.10;81.20
9083;DHT22;4577;48.704;9.000;2023-02-25T18:30:22;3.10;79.60
9083;DHT22;4577;48.704;9.000;2023-02-25T18:37:42;3.60;80.30
9083;DHT22;4577;48.704;9.000;2023-02-25T18:40:19;3.00;78.80
9083;DHT22;4577;48.704;9.000;2023-02-25T18:45:14;3.00;78.30
9083;DHT22;4577;48.704;9.000;2023-02-25T18:47:40;2.90;78.10
9083;DHT22;4577;48.704;9.000;2023-02-25T18:50:06;2.90;79.00
9083;DHT22;4577;48.704;9.000;2023-02-25T18:52:32;3.00;81.20
9083;DHT22;4577;48.704;9.000;2023-02-25T18:54:58;3.30;80.20
9083;DHT22;4577;48.704;9.000;2023-02-25T18:57:25;3.20;78.00
9083;DHT22;4577;48.704;9.000;2023-02-25T18:59:52;3.20;77.40
9083;DHT22;4577;48.704;9.000;2023-02-25T19:02:44;3.30;77.40
9083;DHT22;4577;48.704;9.000;2023-02-25T19:10:04;3.20;75.80
9083;DHT22;4577;48.704;9.000;2023-02-25T19:12:30;3.00;76.80
9083;DHT22;4577;48.704;9.000;2023-02-25T19:15:00;3.20;76.00
9083;DHT22;4577;48.704;9.000;2023-02-25T19:17:27;3.20;74.90
9083;DHT22;4577;48.704;9.000;2023-02-25T19:19:53;3.20;74.30
9083;DHT22;4577;48.704;9.000;2023-02-25T19:22:20;3.00;75.00
9083;DHT22;4577;48.704;9.000;2023-02-25T19:24:46;3.10;74.80
9083;DHT22;4577;48.704;9.000;2023-02-25T19:27:24;3.00;74.80
9083;DHT22;4577;48.704;9.000;2023-02-25T19:29:53;3.10;75.30
9083;DHT22;4577;48.704;9.000;2023-02-25T19:32:19;3.10;74.10
9083;DHT22;4577;48.704;9.000;2023-02-25T19:34:46;3.00;73.80
9083;DHT22;4577;48.704;9.000;2023-02-25T19:37:13;3.10;74.50
9083;DHT22;4577;48.704;9.000;2023-02-25T19:42:06;3.10;73.10
9083;DHT22;4577;48.704;9.000;2023-02-25T19:44:33;3.20;72.60
9083;DHT22;4577;48.704;9.000;2023-02-25T19:49:26;3.10;72.00
9083;DHT22;4577;48.704;9.000;2023-02-25T19:51:52;3.90;72.80
9083;DHT22;4577;48.704;9.000;2023-02-25T19:54:18;2.90;72.20
9083;DHT22;4577;48.704;9.000;2023-02-25T19:56:45;3.10;72.00
9083;DHT22;4577;48.704;9.000;2023-02-25T19:59:11;3.10;71.50
9083;DHT22;4577;48.704;9.000;2023-02-25T20:01:37;3.00;71.80
9083;DHT22;4577;48.704;9.000;2023-02-25T20:04:04;3.00;73.10
9083;DHT22;4577;48.704;9.000;2023-02-25T20:09:01;3.10;71.30
9083;DHT22;4577;48.704;9.000;2023-02-25T20:13:52;3.00;70.00
9083;DHT22;4577;48.704;9.000;2023-02-25T20:16:18;3.10;70.50
9083;DHT22;4577;48.704;9.000;2023-02-25T20:21:14;3.40;70.60
9083;DHT22;4577;48.704;9.000;2023-02-25T20:23:40;3.10;68.40
9083;DHT22;4577;48.704;9.000;2023-02-25T20:26:09;3.20;68.10
9083;DHT22;4577;48.704;9.000;2023-02-25T20:28:35;3.20;67.20
9083;DHT22;4577;48.704;9.000;2023-02-25T20:31:12;3.10;67.70
9083;DHT22;4577;48.704;9.000;2023-02-25T20:33:39;3.10;67.90
9083;DHT22;4577;48.704;9.000;2023-02-25T20:36:26;3.00;66.50
9083;DHT22;4577;48.704;9.000;2023-02-25T20:44:14;2.90;65.90
9083;DHT22;4577;48.704;9.000;2023-02-25T20:46:41;3.10;65.40
9083;DHT22;4577;48.704;9.000;2023-02-25T20:49:12;2.90;64.80
9083;DHT22;4577;48.704;9.000;2023-02-25T20:54:08;2.80;65.70
9083;DHT22;4577;48.704;9.000;2023-02-25T21:03:52;2.70;64.70
9083;DHT22;4577;48.704;9.000;2023-02-25T21:06:22;2.50;63.80
9083;DHT22;4577;48.704;9.000;2023-02-25T21:08:48;2.70;64.30
9083;DHT22;4577;48.704;9.000;2023-02-25T21:16:07;2.70;63.50
9083;DHT22;4577;48.704;9.000;2023-02-25T21:21:02;2.50;65.20
9083;DHT22;4577;48.704;9.000;2023-02-25T21:23:28;2.50;64.80
9083;DHT22;4577;48.704;9.000;2023-02-25T21:25:56;2.10;65.70
9083;DHT22;4577;48.704;9.000;2023-02-25T21:28:22;2.30;65.40
9083;DHT22;4577;48.704;9.000;2023-02-25T21:30:49;2.50;65.20
9083;DHT22;4577;48.704;9.000;2023-02-25T21:33:15;2.20;65.30
9083;DHT22;4577;48.704;9.000;2023-02-25T21:35:49;2.60;65.50
9083;DHT22;4577;48.704;9.000;2023-02-25T21:38:15;2.50;65.40
9083;DHT22;4577;48.704;9.000;2023-02-25T21:45:33;2.10;62.20
9083;DHT22;4577;48.704;9.000;2023-02-25T21:47:59;2.10;62.70
9083;DHT22;4577;48.704;9.000;2023-02-25T21:50:24;2.20;62.20
9083;DHT22;4577;48.704;9.000;2023-02-25T21:52:50;2.10;61.90
9083;DHT22;4577;48.704;9.000;2023-02-25T21:57:42;2.30;60.80
9083;DHT22;4577;48.704;9.000;2023-02-25T22:00:08;2.30;60.80
9083;DHT22;4577;48.704;9.000;2023-02-25T22:07:29;2.30;58.90
9083;DHT22;4577;48.704;9.000;2023-02-25T22:09:55;2.10;59.20
9083;DHT22;4577;48.704;9.000;2023-02-25T22:17:14;2.10;59.30
9083;DHT22;4577;48.704;9.000;2023-02-25T22:24:32;2.20;59.50
9083;DHT22;4577;48.704;9.000;2023-02-25T22:26:58;2.10;59.50
9083;DHT22;4577;48.704;9.000;2023-02-25T22:29:24;2.00;59.20
9083;DHT22;4577;48.704;9.000;2023-02-25T22:36:42;2.20;60.10
9083;DHT22;4577;48.704;9.000;2023-02-25T22:39:08;2.20;59.50
9083;DHT22;4577;48.704;9.000;2023-02-25T22:41:35;2.30;59.70
9083;DHT22;4577;48.704;9.000;2023-02-25T22:46:31;2.20;59.60
9083;DHT22;4577;48.704;9.000;2023-02-25T22:48:58;2.10;59.30
9083;DHT22;4577;48.704;9.000;2023-02-25T22:51:30;1.80;58.70
9083;DHT22;4577;48.704;9.000;2023-02-25T22:53:56;1.80;58.30
9083;DHT22;4577;48.704;9.000;2023-02-25T22:56:22;1.70;58.80
9083;DHT22;4577;48.704;9.000;2023-02-25T23:01:16;2.10;59.50
9083;DHT22;4577;48.704;9.000;2023-02-25T23:03:43;2.10;58.80
9083;DHT22;4577;48.704;9.000;2023-02-25T23:06:11;2.30;58.90
9083;DHT22;4577;48.704;9.000;2023-02-25T23:08:37;2.20;58.00
9083;DHT22;4577;48.704;9.000;2023-02-25T23:11:19;2.10;58.50
9083;DHT22;4577;48.704;9.000;2023-02-25T23:13:50;2.10;58.00
9083;DHT22;4577;48.704;9.000;2023-02-25T23:18:43;1.70;58.30
9083;DHT22;4577;48.704;9.000;2023-02-25T23:21:11;1.70;58.60
9083;DHT22;4577;48.704;9.000;2023-02-25T23:31:26;1.70;58.70
9083;DHT22;4577;48.704;9.000;2023-02-25T23:33:57;1.70;59.40
9083;DHT22;4577;48.704;9.000;2023-02-25T23:36:24;2.00;59.20
9083;DHT22;4577;48.704;9.000;2023-02-25T23:38:58;1.80;58.90
9083;DHT22;4577;48.704;9.000;2023-02-25T23:41:25;1.80;59.30
9083;DHT22;4577;48.704;9.000;2023-02-25T23:43:56;1.90;60.10
9083;DHT22;4577;48.704;9.000;2023-02-25T23:46:24;1.80;58.80
9083;DHT22;4577;48.704;9.000;2023-02-25T23:48:53;1.90;59.00
9083;DHT22;4577;48.704;9.000;2023-02-25T23:56:12;1.80;58.50
9083;DHT22;4577;48.704;9.000;2023-02-25T23:58:38;1.70;58.50
